CSUN Campus Station - National Weather Service Data Page - PST Time




                Date      RH     Dew  Seasonal     Current   Max Air   Min Air    Wind    Wind    Wind    Gust     Bar    Rain
                Time       %   Point      Rain    Air Temp     Since     Since   Speed    Gust     Dir     Dir   Press   Total
                               Deg F    Inches       Deg F  Midnight  Midnight     MPH     MPH                      mb  Inches
------------------------------------------------------------------------------------------------------------------------------
    12/16/2014 00:00      78    47.4      4.91        53.7      64.2      41.4       0       2      62      63    1015    0.00
    12/16/2014 00:10      78    47.3      4.91        54.0      54.2      53.8       1       2      56      60    1015    0.00
    12/16/2014 00:20      78    47.2      4.91        53.9      54.2      53.8       1       3      86      98    1015    0.00
    12/16/2014 00:30      78    47.1      4.91        53.8      54.2      53.7       0       2      78      70    1015    0.00
    12/16/2014 00:40      78    47.0      4.91        53.8      54.2      53.6       0       1      73      82    1015    0.00
    12/16/2014 00:50      79    47.2      4.91        53.8      54.2      53.6       0       1      42      53    1015    0.00
    12/16/2014 01:00      78    47.3      4.91        53.9      54.2      53.6       1       2       8       5    1015    0.00
    12/16/2014 01:10      77    47.1      4.91        53.9      54.2      53.6       0       2      20      31    1015    0.00
    12/16/2014 01:20      77    46.9      4.91        54.1      54.3      53.6       0       2      10      45    1015    0.00
    12/16/2014 01:30      78    47.0      4.91        54.0      54.3      53.6       0       0       0     342    1015    0.00
    12/16/2014 01:40      79    47.3      4.91        53.7      54.3      53.5       0       2     103      92    1014    0.00
    12/16/2014 01:50      81    47.5      4.91        53.5      54.3      53.3       0       1      43      51    1015    0.00
    12/16/2014 02:00      83    48.0      4.91        53.3      54.3      53.0       0       1      50      43    1015    0.00
    12/16/2014 02:10      84    48.2      4.92        53.1      54.3      52.8       0       2      38      26    1015    0.01
    12/16/2014 02:20      84    48.2      4.92        52.9      54.3      52.8       1       3      47      56    1015    0.00
    12/16/2014 02:30      83    48.1      4.92        53.1      54.3      52.8       2       4      42      65    1015    0.00
    12/16/2014 02:40      84    48.1      4.93        53.1      54.3      52.8       2       4      32      37    1015    0.01
    12/16/2014 02:50      84    48.3      4.93        52.9      54.3      52.6       2       4      22      40    1015    0.00
    12/16/2014 03:00      84    48.2      4.94        52.9      54.3      52.6       1       3      52      67    1015    0.01
    12/16/2014 03:10      85    48.3      4.94        52.8      54.3      52.5       1       2       1       9    1015    0.00
    12/16/2014 03:20      85    48.3      4.94        52.6      54.3      52.4       1       2      55      60    1015    0.00
    12/16/2014 03:30      86    48.3      4.94        52.5      54.3      52.2       0       2      29      65    1015    0.00
    12/16/2014 03:40      86    48.2      4.94        52.3      54.3      52.0       1       3      36      29    1014    0.00
    12/16/2014 03:50      86    48.1      4.94        52.2      54.3      52.0       1       2      45      40    1014    0.00
    12/16/2014 04:00      86    48.0      4.94        52.2      54.3      52.0       1       2      38       2    1014    0.00
    12/16/2014 04:10      86    48.0      4.94        52.0      54.3      51.8       0       2     350     352    1014    0.00
    12/16/2014 04:20      87    48.0      4.94        51.9      54.3      51.7       0       2       1      37    1014    0.00
    12/16/2014 04:30      87    47.9      4.95        51.7      54.3      51.5       0       2      89      17    1014    0.01
    12/16/2014 04:40      87    47.9      4.95        51.8      54.3      51.5       0       2      70      57    1014    0.00
    12/16/2014 04:50      87    48.0      4.95        51.9      54.3      51.5       0       1      35      48    1014    0.00
    12/16/2014 05:00      87    47.9      4.95        51.7      54.3      51.5       0       1     357     345    1014    0.00
    12/16/2014 05:10      87    48.0      4.95        51.7      54.3      51.5       0       1       4       3    1014    0.00
    12/16/2014 05:20      88    48.1      4.95        51.7      54.3      51.5       1       2      82      85    1014    0.00
    12/16/2014 05:30      88    48.3      4.95        51.8      54.3      51.5       1       4      44      55    1014    0.00
    12/16/2014 05:40      87    48.1      4.95        51.8      54.3      51.5       2       4      56      69    1014    0.00
    12/16/2014 05:50      86    48.0      4.95        51.9      54.3      51.5       2       4      71      67    1014    0.00
    12/16/2014 06:00      85    47.7      4.95        51.9      54.3      51.5       2       7      80      78    1015    0.00
    12/16/2014 06:10      85    47.5      4.95        51.9      54.3      51.5       2       4      67      86    1015    0.00
    12/16/2014 06:20      85    47.5      4.95        51.8      54.3      51.5       1       3      56      58    1015    0.00
    12/16/2014 06:30      86    47.2      4.96        51.5      54.3      51.3       2       4      36      52    1015    0.01
    12/16/2014 06:40      86    47.2      4.96        51.3      54.3      51.1       2       4      47      37    1015    0.00
    12/16/2014 06:50      86    47.1      4.96        51.2      54.3      51.0       0       2       4       0    1015    0.00
    12/16/2014 07:00      87    47.0      4.96        51.0      54.3      50.8       0       2     126      89    1015    0.00
    12/16/2014 07:10      87    47.1      4.96        50.9      54.3      50.8       1       2      24     347    1015    0.00
    12/16/2014 07:20      88    47.4      4.96        51.0      54.3      50.8       0       2     331     343    1015    0.00
    12/16/2014 07:30      88    47.5      4.96        51.0      54.3      50.8       0       1     247     255    1015    0.00
    12/16/2014 07:40      88    47.8      4.97        51.1      54.3      50.8       0       0       0     258    1015    0.01
    12/16/2014 07:50      89    47.9      4.98        51.2      54.3      50.8       0       0       0     173    1015    0.01
    12/16/2014 08:00      89    48.1      4.98        51.3      54.3      50.8       0       0       0     229    1015    0.00
    12/16/2014 08:10      89    48.2      4.98        51.4      54.3      50.8       1       4       3      10    1015    0.00
    12/16/2014 08:20      89    48.2      4.98        51.4      54.3      50.8       1       4     347     331    1015    0.00
    12/16/2014 08:30      88    48.2      4.99        51.5      54.3      50.8       2       4     355     342    1015    0.01
    12/16/2014 08:40      87    48.1      4.99        51.6      54.3      50.8       1       3       8       6    1016    0.00
    12/16/2014 08:50      87    48.2      4.99        51.9      54.3      50.8       1       2      36      43    1016    0.00
    12/16/2014 09:00      83    47.9      4.99        52.1      54.3      50.8       1       4      22     350    1016    0.00
    12/16/2014 09:10      83    47.4      4.99        52.6      54.3      50.8       1       3      94     108    1016    0.00
    12/16/2014 09:20      82    48.2      4.99        53.0      54.3      50.8       1       2     124     132    1016    0.00
    12/16/2014 09:30      82    47.8      4.99        52.9      54.3      50.8       1       3      60       0    1016    0.00
    12/16/2014 09:40      81    47.2      5.00        52.7      54.3      50.8       2       5     344     322    1016    0.01
    12/16/2014 09:50      82    47.3      5.00        52.8      54.3      50.8       2       5     356       8    1016    0.00
    12/16/2014 10:00      81    47.6      5.00        53.1      54.3      50.8       1       4     350     352    1016    0.00
    12/16/2014 10:10      80    47.5      5.00        53.4      54.3      50.8       1       5     356     346    1016    0.00
    12/16/2014 10:20      78    47.3      5.00        53.8      54.3      50.8       2       5     351     349    1015    0.00
    12/16/2014 10:30      77    47.0      5.00        54.1      54.5      50.8       2       5     344     326    1015    0.00
    12/16/2014 10:40      75    47.1      5.00        54.7      55.1      50.8       2       4     349     352    1015    0.00
    12/16/2014 10:50      73    47.0      5.00        55.3      55.8      50.8       0       3     357      43    1015    0.00
    12/16/2014 11:00      69    46.6      5.00        55.9      56.1      50.8       1       4      75      74    1015    0.00
    12/16/2014 11:10      71    46.3      5.00        56.0      56.5      50.8       2       5      72      86    1015    0.00
    12/16/2014 11:20      68    45.9      5.00        56.3      56.5      50.8       3       5      60      46    1015    0.00
    12/16/2014 11:30      68    46.2      5.00        56.6      57.1      50.8       1       5      59      63    1015    0.00
    12/16/2014 11:40      65    45.8      5.00        57.1      57.3      50.8       1       5      72      92    1015    0.00
    12/16/2014 11:50      65    45.1      5.00        56.7      57.3      50.8       1       5      88      58    1014    0.00
    12/16/2014 12:00      66    45.4      5.00        56.6      57.3      50.8       1       3     102     102    1014    0.00
    12/16/2014 12:10      68    45.5      5.00        56.4      57.3      50.8       2       4     134     141    1014    0.00
    12/16/2014 12:20      69    46.0      5.00        56.3      57.3      50.8       2       5     148     150    1014    0.00
    12/16/2014 12:30      68    46.1      5.00        56.4      57.3      50.8       1       3     148      72    1014    0.00
    12/16/2014 12:40      63    45.7      5.00        56.6      57.3      50.8       1       4      22      43    1014    0.00
    12/16/2014 12:50      64    45.3      5.00        57.2      57.6      50.8       2       4      29       4    1013    0.00
    12/16/2014 13:00      62    45.4      5.00        57.5      57.7      50.8       2       6     352     336    1013    0.00
    12/16/2014 13:10      62    44.9      5.00        57.5      57.7      50.8       2       5      50      60    1013    0.00
    12/16/2014 13:20      61    45.0      5.00        57.6      57.8      50.8       2       6      43      93    1013    0.00
    12/16/2014 13:30      63    45.3      5.00        57.6      57.8      50.8       2       4     139     141    1013    0.00
    12/16/2014 13:40      65    45.4      5.00        57.7      57.9      50.8       2       5     148     169    1013    0.00
    12/16/2014 13:50      65    45.5      5.00        57.5      57.9      50.8       2       4     157     189    1013    0.00
    12/16/2014 14:00      68    46.3      5.00        57.2      57.9      50.8       4       6     153     166    1013    0.00
    12/16/2014 14:10      69    46.6      5.00        56.7      57.9      50.8       3       7     137     159    1013    0.00
    12/16/2014 14:20      73    46.9      5.00        56.4      57.9      50.8       3       9     122     130    1013    0.00
    12/16/2014 14:30      78    47.8      5.00        55.2      57.9      50.8       4       8     119     126    1014    0.00
    12/16/2014 14:40      81    48.0      5.00        54.4      57.9      50.8       3       9     108      86    1014    0.00
    12/16/2014 14:50      85    48.9      5.00        53.7      57.9      50.8       4       9     102      94    1014    0.00
    12/16/2014 15:00      86    49.3      5.00        53.5      57.9      50.8       3       7      94      92    1014    0.00
    12/16/2014 15:10      86    49.4      5.00        53.4      57.9      50.8       3       7      84      93    1014    0.00
    12/16/2014 15:20      85    49.5      5.00        53.7      57.9      50.8       2       6      65      89    1014    0.00
    12/16/2014 15:30      84    49.6      5.00        54.1      57.9      50.8       3       5      63      32    1014    0.00
    12/16/2014 15:40      84    49.6      5.00        54.3      57.9      50.8       2       4      52      59    1014    0.00
    12/16/2014 15:50      84    49.5      5.00        54.2      57.9      50.8       1       4      77      75    1014    0.00
    12/16/2014 16:00      84    49.7      5.00        54.3      57.9      50.8       1       4     348     324    1014    0.00
    12/16/2014 16:10      84    49.5      5.00        54.2      57.9      50.8       2       4     355     344    1014    0.00
    12/16/2014 16:20      84    49.6      5.00        54.3      57.9      50.8       1       3     339     350    1014    0.00
    12/16/2014 16:30      84    49.4      5.00        54.2      57.9      50.8       1       3      14      23    1014    0.00
    12/16/2014 16:40      83    49.3      5.00        54.3      57.9      50.8       2       4      55      30    1014    0.00
    12/16/2014 16:50      83    49.3      5.00        54.3      57.9      50.8       2       5      67      47    1014    0.00
    12/16/2014 17:00      84    49.4      5.00        54.2      57.9      50.8       1       4      58      30    1014    0.00
    12/16/2014 17:10      85    49.2      5.00        53.8      57.9      50.8       0       1     199     159    1014    0.00
    12/16/2014 17:20      86    49.3      5.00        53.6      57.9      50.8       0       1     295     293    1014    0.00
    12/16/2014 17:30      86    49.4      5.00        53.5      57.9      50.8       0       1     281     288    1014    0.00
    12/16/2014 17:40      86    49.5      5.00        53.6      57.9      50.8       1       2     293     288    1014    0.00
    12/16/2014 17:50      85    49.6      5.00        53.8      57.9      50.8       0       1      63       6    1014    0.00
    12/16/2014 18:00      85    49.5      5.00        53.9      57.9      50.8       1       2     295     259    1014    0.00
    12/16/2014 18:10      84    49.5      5.00        54.0      57.9      50.8       0       1     250     261    1014    0.00
    12/16/2014 18:20      84    49.4      5.00        54.1      57.9      50.8       0       0     263     263    1014    0.00
    12/16/2014 18:30      84    49.4      5.00        54.1      57.9      50.8       0       1     280     279    1014    0.00
    12/16/2014 18:40      84    49.4      5.00        54.2      57.9      50.8       0       2     246     254    1015    0.00
    12/16/2014 18:50      83    49.5      5.00        54.3      57.9      50.8       1       2     344     341    1015    0.00
    12/16/2014 19:00      83    49.2      5.00        54.3      57.9      50.8       0       1     342     347    1014    0.00
    12/16/2014 19:10      82    48.9      5.00        54.1      57.9      50.8       0       1     347     346    1014    0.00
    12/16/2014 19:20      83    48.4      5.00        53.5      57.9      50.8       0       1     339     332    1014    0.00
    12/16/2014 19:30      84    48.4      5.00        53.2      57.9      50.8       0       0       0      24    1014    0.00
    12/16/2014 19:40      84    48.8      5.00        53.3      57.9      50.8       1       4      30      40    1014    0.00
    12/16/2014 19:50      83    48.7      5.00        53.5      57.9      50.8       0       1     359      27    1014    0.00
    12/16/2014 20:00      84    48.5      5.00        53.2      57.9      50.8       0       1     257     259    1014    0.00
    12/16/2014 20:10      85    48.8      5.00        53.2      57.9      50.8       0       1     252     252    1015    0.00
    12/16/2014 20:20      85    49.0      5.01        53.3      57.9      50.8       0       0       0     247    1015    0.01
    12/16/2014 20:30      86    49.4      5.01        53.5      57.9      50.8       0       0       0     225    1015    0.00
    12/16/2014 20:40      87    49.4      5.01        53.3      57.9      50.8       0       0       0     101    1015    0.00
    12/16/2014 20:50      88    49.3      5.01        53.0      57.9      50.8       0       1      59      90    1015    0.00
    12/16/2014 21:00      88    49.5      5.01        53.0      57.9      50.8       0       0       0     110    1015    0.00
    12/16/2014 21:10      88    49.5      5.01        52.9      57.9      50.8       0       0       0      88    1015    0.00
    12/16/2014 21:20      89    49.3      5.01        52.6      57.9      50.8       0       0       0      88    1015    0.00
    12/16/2014 21:30      89    49.6      5.01        52.8      57.9      50.8       0       0       0     274    1015    0.00
    12/16/2014 21:40      89    49.8      5.01        52.8      57.9      50.8       0       2     309     314    1015    0.00
    12/16/2014 21:50      89    49.7      5.01        52.7      57.9      50.8       0       0       0     280    1015    0.00
    12/16/2014 22:00      90    49.7      5.01        52.7      57.9      50.8       0       0       0     276    1015    0.00
    12/16/2014 22:10      90    49.7      5.01        52.7      57.9      50.8       0       1      67      82    1015    0.00
    12/16/2014 22:20      89    49.7      5.01        52.7      57.9      50.8       0       1     175     101    1015    0.00
    12/16/2014 22:30      90    49.6      5.01        52.5      57.9      50.8       0       1       4      75    1015    0.00
    12/16/2014 22:40      90    49.8      5.01        52.7      57.9      50.8       1       3      71      36    1015    0.00
    12/16/2014 22:50      89    49.9      5.01        52.9      57.9      50.8       2       4      71      83    1014    0.00
    12/16/2014 23:00      88    49.7      5.01        53.0      57.9      50.8       1       5      81      76    1014    0.00
    12/16/2014 23:10      88    49.6      5.01        52.9      57.9      50.8       1       3      53      31    1014    0.00
    12/16/2014 23:20      88    49.6      5.01        53.0      57.9      50.8       1       3      88      83    1014    0.00
    12/16/2014 23:30      88    49.6      5.01        53.0      57.9      50.8       1       4      88      56    1014    0.00
    12/16/2014 23:40      88    49.6      5.01        53.0      57.9      50.8       1       2      95      66    1014    0.00
    12/16/2014 23:50      88    49.6      5.01        52.9      57.9      50.8       0       1     102      98    1014    0.00
    12/17/2014 00:00      89    49.6      5.01        53.0      57.9      50.8       0       0       0     166    1014    0.00
    12/17/2014 00:10      89    49.6      5.04        52.9      53.1      52.7       1       4     175     209    1014    0.03
    12/17/2014 00:20      89    49.7      5.08        52.9      53.1      52.7       3       6     178     189    1014    0.04
    12/17/2014 00:30      89    49.6      5.11        52.7      53.1      52.5       1       4     164     191    1014    0.03
    12/17/2014 00:40      89    49.5      5.11        52.6      53.1      52.4       0       1     344      35    1014    0.00
    12/17/2014 00:50      90    49.7      5.12        52.6      53.1      52.4       1       3      66      60    1013    0.01
    12/17/2014 01:00      90    49.8      5.12        52.7      53.1      52.4       1       3      40      64    1013    0.00
    12/17/2014 01:10      90    49.9      5.12        52.7      53.1      52.4       1       3      62      49    1013    0.00
    12/17/2014 01:20      90    49.9      5.12        52.7      53.1      52.4       1       2      82      57    1013    0.00
    12/17/2014 01:30      90    50.0      5.13        52.8      53.1      52.4       2       4      94      95    1014    0.01
    12/17/2014 01:40      90    49.9      5.13        52.7      53.1      52.4       2       4      53      76    1013    0.00
    12/17/2014 01:50      90    49.9      5.14        52.6      53.1      52.4       1       2      43      42    1013    0.01
    12/17/2014 02:00      90    49.8      5.15        52.6      53.1      52.4       2       4      50      29    1013    0.01
    12/17/2014 02:10      90    49.8      5.15        52.6      53.1      52.4       2       4      53      65    1013    0.00
    12/17/2014 02:20      90    49.8      5.15        52.5      53.1      52.4       1       3      88      33    1013    0.00
    12/17/2014 02:30      90    49.8      5.15        52.6      53.1      52.4       2       4      78      70    1013    0.00
    12/17/2014 02:40      91    49.8      5.16        52.5      53.1      52.3       2       4      80      70    1013    0.01
    12/17/2014 02:50      91    49.7      5.18        52.4      53.1      52.2       2       6     277     275    1013    0.02
    12/17/2014 03:00      91    49.3      5.25        52.0      53.1      51.7       1       6     235     301    1013    0.07
    12/17/2014 03:10      90    49.0      5.32        51.7      53.1      51.3       1       5     227     258    1013    0.07
    12/17/2014 03:20      90    49.2      5.33        51.9      53.1      51.3       3       6      92     103    1013    0.01
    12/17/2014 03:30      90    49.2      5.33        52.0      53.1      51.3       2       5      70      51    1013    0.00
    12/17/2014 03:40      90    49.1      5.33        51.9      53.1      51.3       2       4       7      50    1013    0.00
    12/17/2014 03:50      90    48.4      5.33        51.3      53.1      50.9       2       5     326     346    1013    0.00
    12/17/2014 04:00      90    48.0      5.33        50.8      53.1      50.6       1       2      28     334    1013    0.00
    12/17/2014 04:10      90    47.7      5.33        50.6      53.1      50.4       1       3      12       6    1013    0.00
    12/17/2014 04:20      90    47.6      5.33        50.5      53.1      50.2       1       2     319     271    1013    0.00
    12/17/2014 04:30      90    47.5      5.33        50.4      53.1      50.1       1       3     340      50    1013    0.00
    12/17/2014 04:40      89    47.8      5.33        50.9      53.1      50.1       3       4      61      40    1013    0.00
    12/17/2014 04:50      87    47.8      5.33        51.2      53.1      50.1       2       4      41      61    1013    0.00
    12/17/2014 05:00      87    47.4      5.33        51.1      53.1      50.1       2       4       4      10    1013    0.00
    12/17/2014 05:10      87    47.2      5.33        50.9      53.1      50.1       2       4     359     335    1013    0.00
    12/17/2014 05:20      88    47.2      5.33        50.8      53.1      50.1       1       4     341     354    1013    0.00
    12/17/2014 05:30      88    47.2      5.33        50.7      53.1      50.1       2       4      10      55    1013    0.00
    12/17/2014 05:40      88    47.1      5.33        50.7      53.1      50.1       1       4      22     334    1014    0.00
    12/17/2014 05:50      88    46.9      5.33        50.4      53.1      50.1       1       3      19      22    1014    0.00
    12/17/2014 06:00      88    46.8      5.33        50.2      53.1      49.9       1       4       9      10    1014    0.00
    12/17/2014 06:10      88    46.5      5.33        49.9      53.1      49.6       1       3     350       2    1014    0.00
    12/17/2014 06:20      88    46.3      5.33        49.6      53.1      49.4       1       3     341       3    1014    0.00
    12/17/2014 06:30      88    46.2      5.33        49.4      53.1      49.3       2       3     343     342    1014    0.00
    12/17/2014 06:40      88    46.1      5.33        49.3      53.1      49.1       2       4     332     339    1014    0.00
    12/17/2014 06:50      88    45.6      5.33        48.9      53.1      48.5       1       4       6     344    1014    0.00
    12/17/2014 07:00      88    44.7      5.33        48.1      53.1      47.6       0       1     256     254    1014    0.00
    12/17/2014 07:10      88    44.3      5.33        47.6      53.1      47.5       0       1     263     260    1015    0.00
    12/17/2014 07:20      89    44.1      5.33        47.3      53.1      46.9       0       1     258     260    1015    0.00
    12/17/2014 07:30      90    44.3      5.33        47.3      53.1      46.9       0       1     290     294    1015    0.00
    12/17/2014 07:40      90    44.6      5.33        47.5      53.1      46.9       0       1     295     293    1015    0.00
    12/17/2014 07:50      90    45.0      5.33        47.8      53.1      46.9       0       1     290     310    1015    0.00
    12/17/2014 08:00      90    45.9      5.33        48.6      53.1      46.9       0       1     261     251    1015    0.00
    12/17/2014 08:10      90    46.3      5.33        49.0      53.1      46.9       0       1     204     219    1015    0.00
    12/17/2014 08:20      90    46.8      5.33        49.6      53.1      46.9       0       1      68      47    1015    0.00
    12/17/2014 08:30      90    47.4      5.33        50.3      53.1      46.9       1       2      46     255    1016    0.00
    12/17/2014 08:40      89    47.9      5.33        50.9      53.1      46.9       2       3     204     188    1016    0.00
    12/17/2014 08:50      82    47.2      5.33        51.6      53.1      46.9       4       5     188     181    1016    0.00
    12/17/2014 09:00      84    46.9      5.33        51.9      53.1      46.9       4       6     190     197    1016    0.00
    12/17/2014 09:10      82    47.5      5.33        52.3      53.1      46.9       2       4     216     200    1016    0.00
    12/17/2014 09:20      78    47.8      5.33        53.5      54.4      46.9       1       3     217     183    1016    0.00
    12/17/2014 09:30      75    47.3      5.33        54.6      55.0      46.9       1       2     154     191    1016    0.00
    12/17/2014 09:40      74    47.4      5.33        55.1      55.7      46.9       1       2     257     345    1016    0.00
    12/17/2014 09:50      71    47.3      5.33        55.8      56.2      46.9       1       2     167     170    1017    0.00
    12/17/2014 10:00      68    46.1      5.33        55.8      56.4      46.9       1       3     242     213    1017    0.00
    12/17/2014 10:10      68    46.5      5.33        56.6      57.1      46.9       1       3     180     168    1017    0.00
    12/17/2014 10:20      65    46.5      5.33        57.2      57.7      46.9       2       4     165     214    1017    0.00
    12/17/2014 10:30      68    46.6      5.33        57.1      57.7      46.9       4       7     180     195    1017    0.00
    12/17/2014 10:40      69    46.4      5.33        56.8      57.7      46.9       3       6     192     188    1016    0.00
    12/17/2014 10:50      64    46.4      5.33        58.1      58.6      46.9       2       5     174     213    1016    0.00
    12/17/2014 11:00      65    45.9      5.33        57.8      58.6      46.9       4       7     170     168    1016    0.00
    12/17/2014 11:10      64    45.6      5.33        58.0      58.8      46.9       3       5     163     174    1016    0.00
    12/17/2014 11:20      60    44.7      5.33        57.6      58.8      46.9       3       6     203     185    1016    0.00
    12/17/2014 11:30      62    44.4      5.33        58.0      58.8      46.9       4       7     196     193    1016    0.00
    12/17/2014 11:40      57    44.6      5.33        58.7      59.1      46.9       3       7     225     259    1016    0.00
    12/17/2014 11:50      55    44.2      5.33        59.1      59.5      46.9       4       7     198     209    1016    0.00
    12/17/2014 12:00      52    42.8      5.33        58.7      59.5      46.9       5      12     182     187    1016    0.00
    12/17/2014 12:10      48    41.6      5.33        59.6      60.4      46.9       4       8     188     161    1016    0.00
    12/17/2014 12:20      47    40.5      5.33        60.1      60.6      46.9       3       7     136     152    1016    0.00
    12/17/2014 12:30      48    39.9      5.33        60.1      60.6      46.9       2       5     160     122    1016    0.00
    12/17/2014 12:40      44    40.5      5.33        60.5      60.8      46.9       3       7     229     203    1016    0.00
    12/17/2014 12:50      43    39.5      5.33        60.6      61.0      46.9       2       5     259     284    1016    0.00
    12/17/2014 13:00      44    39.1      5.33        61.3      61.8      46.9       2       7     290     255    1016    0.00
    12/17/2014 13:10      43    38.7      5.33        61.1      61.8      46.9       2       6     246     248    1016    0.00
    12/17/2014 13:20      40    37.1      5.33        60.2      61.8      46.9       2       6     261     260    1016    0.00
    12/17/2014 13:30      42    37.4      5.33        60.7      61.8      46.9       1       6     233     187    1016    0.00
    12/17/2014 13:40      47    38.5      5.33        60.5      61.8      46.9       4       7     188     176    1016    0.00
    12/17/2014 13:50      47    39.5      5.33        59.8      61.8      46.9       3       8     207     202    1016    0.00
    12/17/2014 14:00      50    40.5      5.33        59.5      61.8      46.9       4       8     192     196    1016    0.00
    12/17/2014 14:10      53    41.0      5.33        59.1      61.8      46.9       4       7     196     193    1016    0.00
    12/17/2014 14:20      53    40.7      5.33        59.4      61.8      46.9       1       4     235     253    1016    0.00
    12/17/2014 14:30      53    41.7      5.33        59.2      61.8      46.9       5      12     200     182    1016    0.00
    12/17/2014 14:40      56    42.4      5.33        58.3      61.8      46.9       7      12     192     197    1016    0.00
    12/17/2014 14:50      56    42.3      5.33        58.0      61.8      46.9       7      10     183     187    1016    0.00
    12/17/2014 15:00      57    42.5      5.33        57.8      61.8      46.9       6      10     185     173    1016    0.00
    12/17/2014 15:10      56    42.6      5.33        57.9      61.8      46.9       5      11     210     183    1016    0.00
    12/17/2014 15:20      52    40.8      5.33        57.8      61.8      46.9       4      10     241     248    1016    0.00
    12/17/2014 15:30      52    40.0      5.33        57.7      61.8      46.9       4      12     250     257    1016    0.00
    12/17/2014 15:40      53    39.9      5.33        57.3      61.8      46.9       5      11     257     259    1016    0.00
    12/17/2014 15:50      52    39.7      5.33        57.0      61.8      46.9       4       8     254     251    1016    0.00
    12/17/2014 16:00      51    39.0      5.33        56.9      61.8      46.9       4       8     239     246    1016    0.00
    12/17/2014 16:10      53    39.2      5.33        56.8      61.8      46.9       4       7     258     246    1016    0.00
    12/17/2014 16:20      54    39.9      5.33        56.6      61.8      46.9       5       9     250     250    1016    0.00
    12/17/2014 16:30      55    40.3      5.33        56.5      61.8      46.9       4       7     252     271    1017    0.00
    12/17/2014 16:40      56    40.5      5.33        56.4      61.8      46.9       4       6     253     256    1017    0.00
    12/17/2014 16:50      56    40.5      5.33        56.3      61.8      46.9       3       6     258     252    1017    0.00
    12/17/2014 17:00      55    40.2      5.33        56.1      61.8      46.9       3       5     243     252    1017    0.00
    12/17/2014 17:10      55    40.0      5.33        56.1      61.8      46.9       3       8     255     250    1017    0.00
    12/17/2014 17:20      55    40.2      5.33        56.0      61.8      46.9       2       7     265     259    1017    0.00
    12/17/2014 17:30      57    40.5      5.33        55.9      61.8      46.9       1       3     286     305    1017    0.00
    12/17/2014 17:40      57    40.5      5.33        55.5      61.8      46.9       0       1     287     284    1017    0.00
    12/17/2014 17:50      61    40.9      5.33        55.2      61.8      46.9       0       1     337     332    1017    0.00
    12/17/2014 18:00      59    41.3      5.33        55.1      61.8      46.9       0       2       7     350    1017    0.00
    12/17/2014 18:10      62    41.5      5.33        55.1      61.8      46.9       0       1     353     352    1017    0.00
    12/17/2014 18:20      64    42.0      5.33        54.5      61.8      46.9       0       1     255     249    1017    0.00
    12/17/2014 18:30      63    41.9      5.33        54.2      61.8      46.9       0       1     277     285    1017    0.00
    12/17/2014 18:40      63    41.8      5.33        53.9      61.8      46.9       0       2     258     239    1017    0.00
    12/17/2014 18:50      66    41.8      5.33        53.6      61.8      46.9       0       2     292     296    1017    0.00
    12/17/2014 19:00      64    42.1      5.33        53.5      61.8      46.9       1       2     312     332    1017    0.00
    12/17/2014 19:10      66    42.1      5.33        53.6      61.8      46.9       0       1     297     302    1017    0.00
    12/17/2014 19:20      68    42.0      5.33        53.0      61.8      46.9       0       0       0     286    1017    0.00
    12/17/2014 19:30      69    42.5      5.33        52.5      61.8      46.9       0       0     326     319    1017    0.00
    12/17/2014 19:40      70    42.3      5.33        52.0      61.8      46.9       0       1     342     342    1017    0.00
    12/17/2014 19:50      71    42.4      5.33        51.7      61.8      46.9       0       2     342     342    1017    0.00
    12/17/2014 20:00      70    42.3      5.33        51.6      61.8      46.9       1       2     341     345    1017    0.00
    12/17/2014 20:10      70    42.3      5.33        51.7      61.8      46.9       1       2     340     334    1018    0.00
    12/17/2014 20:20      72    41.9      5.33        51.0      61.8      46.9       0       0       0     338    1018    0.00
    12/17/2014 20:30      75    42.0      5.33        49.9      61.8      46.9       0       0       0     299    1018    0.00
    12/17/2014 20:40      77    42.2      5.33        49.3      61.8      46.9       0       1     230     233    1018    0.00
    12/17/2014 20:50      78    42.4      5.33        49.0      61.8      46.9       1       4     267     246    1018    0.00
    12/17/2014 21:00      77    42.4      5.33        49.2      61.8      46.9       0       2     292     309    1018    0.00
    12/17/2014 21:10      77    42.3      5.33        49.2      61.8      46.9       0       2     338     341    1018    0.00
    12/17/2014 21:20      79    42.1      5.33        48.8      61.8      46.9       0       1     313     319    1018    0.00
    12/17/2014 21:30      80    42.5      5.33        48.5      61.8      46.9       1       2     340     347    1018    0.00
    12/17/2014 21:40      80    42.0      5.33        48.0      61.8      46.9       0       1      79      98    1018    0.00
    12/17/2014 21:50      82    41.6      5.33        47.2      61.8      46.9       0       1     133     133    1018    0.00
    12/17/2014 22:00      83    42.0      5.33        47.0      61.8      46.8       0       0       0     133    1018    0.00
    12/17/2014 22:10      84    42.3      5.33        47.0      61.8      46.8       0       1      83      96    1018    0.00
    12/17/2014 22:20      81    42.6      5.33        47.5      61.8      46.8       1       3      68      69    1018    0.00
    12/17/2014 22:30      80    42.1      5.33        47.6      61.8      46.8       1       2      15     354    1018    0.00
    12/17/2014 22:40      81    41.6      5.33        47.4      61.8      46.8       0       0     337     337    1018    0.00
    12/17/2014 22:50      82    41.6      5.33        47.0      61.8      46.6       0       1      22      30    1018    0.00
    12/17/2014 23:00      83    41.5      5.33        46.5      61.8      46.3       0       1     328     330    1018    0.00
    12/17/2014 23:10      82    41.7      5.33        46.7      61.8      46.2       1       2      28      19    1018    0.00
    12/17/2014 23:20      84    41.2      5.33        46.2      61.8      46.0       1       2      39      51    1018    0.00
    12/17/2014 23:30      82    41.5      5.33        46.4      61.8      46.0       1       3      36      30    1018    0.00
    12/17/2014 23:40      81    41.4      5.33        46.7      61.8      46.0       2       4       2      16    1018    0.00
    12/17/2014 23:50      75    40.5      5.33        47.3      61.8      46.0       1       4      16       0    1018    0.00
    12/18/2014 00:00      75    39.6      5.33        47.5      61.8      46.0       1       3      13      18    1018    0.00
    12/18/2014 00:10      79    39.4      5.33        46.4      47.1      45.8       0       2     330       8    1018    0.00
    12/18/2014 00:20      81    39.9      5.33        45.7      47.1      45.3       1       2     280     282    1018    0.00
    12/18/2014 00:30      82    40.3      5.33        45.5      47.1      45.2       1       2     297     345    1018    0.00
    12/18/2014 00:40      80    40.4      5.33        45.8      47.1      45.2       0       2       1     342    1018    0.00
    12/18/2014 00:50      81    39.9      5.33        45.5      47.1      45.2       0       2     156     150    1018    0.00
    12/18/2014 01:00      82    39.8      5.33        45.2      47.1      44.9       0       2     263     161    1018    0.00
    12/18/2014 01:10      83    39.7      5.33        44.7      47.1      44.5       0       1     197     211    1018    0.00
    12/18/2014 01:20      84    40.2      5.33        45.0      47.1      44.5       0       0       0     243    1018    0.00
    12/18/2014 01:30      84    40.3      5.33        45.1      47.1      44.5       1       2     333     331    1019    0.00
    12/18/2014 01:40      83    40.5      5.33        45.2      47.1      44.5       1       3     331     330    1019    0.00
    12/18/2014 01:50      84    40.4      5.33        45.1      47.1      44.5       0       1     350     346    1019    0.00
    12/18/2014 02:00      83    40.4      5.33        45.0      47.1      44.5       0       0       0     353    1019    0.00
    12/18/2014 02:10      84    40.6      5.33        45.0      47.1      44.5       0       1      10     346    1019    0.00
    12/18/2014 02:20      81    40.5      5.33        45.5      47.1      44.5       1       3      67     148    1019    0.00
    12/18/2014 02:30      81    39.9      5.33        45.4      47.1      44.5       1       3      63     145    1019    0.00
    12/18/2014 02:40      79    39.4      5.33        45.2      47.1      44.5       0       3      19      26    1019    0.00
    12/18/2014 02:50      80    39.1      5.33        45.1      47.1      44.5       0       0       0     292    1019    0.00
    12/18/2014 03:00      81    39.2      5.33        44.8      47.1      44.4       0       1     263     263    1019    0.00
    12/18/2014 03:10      82    39.1      5.33        44.4      47.1      44.1       0       0       0     264    1019    0.00
    12/18/2014 03:20      83    39.3      5.33        44.1      47.1      44.0       0       0     286     287    1019    0.00
    12/18/2014 03:30      84    39.4      5.33        44.0      47.1      43.8       0       1     296     288    1019    0.00
    12/18/2014 03:40      85    39.5      5.33        44.0      47.1      43.8       1       2     319     312    1019    0.00
    12/18/2014 03:50      85    39.6      5.33        43.9      47.1      43.7       1       1     332     319    1019    0.00
    12/18/2014 04:00      85    39.9      5.33        44.1      47.1      43.7       0       1     348     346    1019    0.00
    12/18/2014 04:10      85    39.6      5.33        43.8      47.1      43.3       0       1     328     341    1019    0.00
    12/18/2014 04:20      86    39.2      5.33        43.3      47.1      43.0       0       1     316     333    1019    0.00
    12/18/2014 04:30      86    39.3      5.33        43.2      47.1      43.0       0       1     348     346    1019    0.00
    12/18/2014 04:40      86    38.9      5.33        42.9      47.1      42.6       0       1     330     326    1019    0.00
    12/18/2014 04:50      87    38.9      5.33        42.7      47.1      42.4       0       1      72      81    1019    0.00
    12/18/2014 05:00      86    39.7      5.33        43.4      47.1      42.4       0       2      15     348    1019    0.00
    12/18/2014 05:10      86    39.7      5.33        43.6      47.1      42.4       0       1     331     328    1019    0.00
    12/18/2014 05:20      86    39.6      5.33        43.6      47.1      42.4       0       1     336     336    1019    0.00
    12/18/2014 05:30      86    40.0      5.33        43.9      47.1      42.4       1       3      53      39    1019    0.00
    12/18/2014 05:40      82    40.5      5.33        45.3      47.1      42.4       1       3      51      55    1019    0.00
    12/18/2014 05:50      82    40.1      5.33        45.3      47.1      42.4       0       1       9      52    1019    0.00
    12/18/2014 06:00      82    40.2      5.33        45.4      47.1      42.4       0       2     335     341    1019    0.00
    12/18/2014 06:10      82    40.1      5.33        45.2      47.1      42.4       0       1     236     229    1020    0.00
    12/18/2014 06:20      83    39.8      5.33        44.7      47.1      42.4       0       1      63      57    1020    0.00
    12/18/2014 06:30      83    40.1      5.33        44.9      47.1      42.4       1       2      44      56    1020    0.00
    12/18/2014 06:40      83    40.1      5.33        45.0      47.1      42.4       0       1     250     250    1020    0.00
    12/18/2014 06:50      85    40.1      5.33        44.7      47.1      42.4       1       2     259     247    1020    0.00
    12/18/2014 07:00      85    40.4      5.33        44.7      47.1      42.4       0       2     301     258    1020    0.00
    12/18/2014 07:10      85    40.5      5.33        44.8      47.1      42.4       0       0     287     275    1020    0.00
    12/18/2014 07:20      86    40.6      5.33        44.7      47.1      42.4       0       2      40      41    1020    0.00
    12/18/2014 07:30      85    41.0      5.33        45.1      47.1      42.4       0       1      45      44    1020    0.00
    12/18/2014 07:40      85    41.6      5.33        45.8      47.1      42.4       0       1     261     257    1020    0.00
    12/18/2014 07:50      85    41.9      5.33        46.2      47.1      42.4       0       1     265     264    1020    0.00
    12/18/2014 08:00      84    42.1      5.33        46.7      47.1      42.4       0       2      51      60    1020    0.00
    12/18/2014 08:10      79    42.4      5.33        47.6      48.3      42.4       1       2      37      67    1020    0.00
    12/18/2014 08:20      80    42.6      5.33        48.4      48.7      42.4       0       0       0       6    1021    0.00
    12/18/2014 08:30      79    42.8      5.33        48.6      49.1      42.4       0       0       0     225    1021    0.00
    12/18/2014 08:40      76    42.8      5.33        49.6      50.2      42.4       0       1     168     168    1021    0.00
    12/18/2014 08:50      72    42.4      5.33        50.4      50.7      42.4       0       1     120     120    1021    0.00
    12/18/2014 09:00      70    42.0      5.33        51.0      51.3      42.4       1       1     167     156    1021    0.00
    12/18/2014 09:10      70    42.1      5.33        51.4      51.6      42.4       1       2     149     150    1021    0.00
    12/18/2014 09:20      68    42.2      5.33        51.9      52.3      42.4       0       1     140     142    1021    0.00
    12/18/2014 09:30      67    42.1      5.33        52.5      52.8      42.4       0       1     187     147    1021    0.00
    12/18/2014 09:40      66    41.8      5.33        52.9      53.1      42.4       0       2     159      99    1021    0.00
    12/18/2014 09:50      68    42.5      5.33        53.3      53.9      42.4       1       4     174     188    1021    0.00
    12/18/2014 10:00      62    42.5      5.33        54.3      54.9      42.4       2       4     234     212    1022    0.00
    12/18/2014 10:10      63    41.7      5.33        53.9      54.9      42.4       1       3     278     256    1022    0.00
    12/18/2014 10:20      62    42.1      5.33        54.5      55.6      42.4       0       1     206     229    1021    0.00
    12/18/2014 10:30      57    42.1      5.33        56.1      56.7      42.4       1       2     228     251    1021    0.00
    12/18/2014 10:40      55    41.2      5.33        56.9      57.3      42.4       1       3     185     195    1021    0.00
    12/18/2014 10:50      58    41.0      5.33        57.0      57.3      42.4       2       4     202     178    1021    0.00
    12/18/2014 11:00      56    41.8      5.33        56.9      57.3      42.4       3       7     175     194    1021    0.00
    12/18/2014 11:10      59    42.0      5.33        57.1      57.4      42.4       3       6     150     156    1021    0.00
    12/18/2014 11:20      55    42.1      5.33        57.7      58.0      42.4       1       4     154     141    1021    0.00
    12/18/2014 11:30      56    42.0      5.33        57.3      58.0      42.4       2       5     162     200    1021    0.00
    12/18/2014 11:40      56    42.2      5.33        57.4      58.1      42.4       1       3     130     157    1020    0.00
    12/18/2014 11:50      55    42.0      5.33        57.7      58.1      42.4       1       4      96      44    1020    0.00
    12/18/2014 12:00      55    42.1      5.33        58.0      58.3      42.4       1       3     259     245    1020    0.00
    12/18/2014 12:10      54    42.4      5.33        58.4      58.9      42.4       2       4     187     159    1020    0.00
    12/18/2014 12:20      53    42.4      5.33        58.8      59.1      42.4       3       5     170     168    1020    0.00
    12/18/2014 12:30      53    41.9      5.33        58.5      59.1      42.4       2       5     164     136    1020    0.00
    12/18/2014 12:40      51    41.7      5.33        58.8      59.2      42.4       2       4     161     133    1020    0.00
    12/18/2014 12:50      50    40.9      5.33        59.1      59.4      42.4       1       4     130     128    1019    0.00
    12/18/2014 13:00      50    41.0      5.33        59.2      59.7      42.4       2       5     155     193    1019    0.00
    12/18/2014 13:10      48    40.8      5.33        59.5      59.9      42.4       1       3     203     182    1019    0.00
    12/18/2014 13:20      49    40.8      5.33        59.7      60.0      42.4       1       4     313     348    1019    0.00
    12/18/2014 13:30      49    41.4      5.33        59.9      60.6      42.4       0       2     199     167    1019    0.00
    12/18/2014 13:40      51    41.4      5.33        60.0      60.6      42.4       1       3     133      87    1019    0.00
    12/18/2014 13:50      49    40.9      5.33        59.8      60.6      42.4       0       2     107      83    1019    0.00
    12/18/2014 14:00      50    40.5      5.33        59.6      60.6      42.4       1       3      97      85    1019    0.00
    12/18/2014 14:10      50    40.7      5.33        59.5      60.6      42.4       1       3      60      72    1019    0.00
    12/18/2014 14:20      50    40.7      5.33        59.6      60.6      42.4       0       2      74      74    1019    0.00
    12/18/2014 14:30      48    41.6      5.33        60.9      61.6      42.4       0       1     220     245    1019    0.00
    12/18/2014 14:40      49    42.1      5.33        61.3      61.8      42.4       1       3     198     184    1019    0.00
    12/18/2014 14:50      49    42.3      5.33        61.0      61.8      42.4       1       5     225     185    1019    0.00
    12/18/2014 15:00      49    42.6      5.33        61.2      61.8      42.4       1       2     217     204    1019    0.00
    12/18/2014 15:10      49    41.4      5.33        61.5      61.8      42.4       2       3     234     252    1019    0.00
    12/18/2014 15:20      49    41.6      5.33        61.1      61.8      42.4       1       3     141      96    1019    0.00
    12/18/2014 15:30      47    41.4      5.33        60.9      61.8      42.4       1       3     154     157    1019    0.00
    12/18/2014 15:40      47    41.3      5.33        61.6      61.9      42.4       0       1     356     257    1019    0.00
    12/18/2014 15:50      52    41.4      5.33        60.6      61.9      42.4       2       4     179     167    1019    0.00
    12/18/2014 16:00      55    42.3      5.33        59.0      61.9      42.4       3       5     188     192    1019    0.00
    12/18/2014 16:10      57    42.7      5.33        58.6      61.9      42.4       3       5     198     207    1019    0.00
    12/18/2014 16:20      57    43.4      5.33        58.6      61.9      42.4       2       4     202     188    1019    0.00
    12/18/2014 16:30      58    43.7      5.33        58.7      61.9      42.4       1       4     219     206    1020    0.00
    12/18/2014 16:40      57    43.5      5.33        58.5      61.9      42.4       2       4     202     186    1020    0.00
    12/18/2014 16:50      60    43.6      5.33        58.0      61.9      42.4       2       3     201     194    1020    0.00
    12/18/2014 17:00      62    44.0      5.33        57.4      61.9      42.4       0       3     227     209    1020    0.00
    12/18/2014 17:10      64    44.1      5.33        56.7      61.9      42.4       0       2     194     206    1020    0.00
    12/18/2014 17:20      67    44.7      5.33        56.1      61.9      42.4       1       3     174     172    1020    0.00
    12/18/2014 17:30      70    45.6      5.33        55.7      61.9      42.4       0       0       0     136    1020    0.00
    12/18/2014 17:40      70    45.8      5.33        55.5      61.9      42.4       0       0       0     106    1020    0.00
    12/18/2014 17:50      71    46.0      5.33        55.4      61.9      42.4       0       0       0     105    1020    0.00
    12/18/2014 18:00      72    46.0      5.33        55.0      61.9      42.4       0       0       0     104    1020    0.00
    12/18/2014 18:10      73    45.9      5.33        54.6      61.9      42.4       0       0       0     338    1020    0.00
    12/18/2014 18:20      75    45.8      5.33        53.8      61.9      42.4       0       0       0     340    1020    0.00
    12/18/2014 18:30      77    46.0      5.33        53.3      61.9      42.4       0       0       0      59    1021    0.00
    12/18/2014 18:40      77    46.1      5.33        53.1      61.9      42.4       0       0       0      59    1021    0.00
    12/18/2014 18:50      78    46.1      5.33        52.9      61.9      42.4       0       0       0      59    1021    0.00
    12/18/2014 19:00      78    46.2      5.33        52.8      61.9      42.4       0       0       0     298    1021    0.00
    12/18/2014 19:10      81    46.1      5.33        52.2      61.9      42.4       0       0       0     305    1021    0.00
    12/18/2014 19:20      82    46.5      5.33        52.0      61.9      42.4       0       0     337     337    1021    0.00
    12/18/2014 19:30      81    46.9      5.33        52.5      61.9      42.4       0       1     319     312    1021    0.00
    12/18/2014 19:40      80    46.6      5.33        52.4      61.9      42.4       0       1     320     318    1021    0.00
    12/18/2014 19:50      80    46.1      5.33        52.0      61.9      42.4       0       1     335     331    1021    0.00
    12/18/2014 20:00      79    45.6      5.33        51.7      61.9      42.4       1       2     344     353    1021    0.00
    12/18/2014 20:10      79    45.1      5.33        51.3      61.9      42.4       0       1      35      27    1021    0.00
    12/18/2014 20:20      80    44.9      5.33        51.0      61.9      42.4       0       1      37      24    1021    0.00
    12/18/2014 20:30      78    44.7      5.33        51.1      61.9      42.4       1       3      34      48    1021    0.00
    12/18/2014 20:40      77    44.4      5.33        51.2      61.9      42.4       1       3      38      67    1021    0.00
    12/18/2014 20:50      79    44.1      5.33        50.5      61.9      42.4       1       2      48      30    1021    0.00
    12/18/2014 21:00      79    44.3      5.33        50.4      61.9      42.4       2       4      11     351    1021    0.00
    12/18/2014 21:10      78    44.5      5.33        51.0      61.9      42.4       3       5       4       3    1021    0.00
    12/18/2014 21:20      76    44.7      5.33        51.6      61.9      42.4       2       6     348     340    1021    0.00
    12/18/2014 21:30      78    43.6      5.33        50.8      61.9      42.4       2       4     193     197    1022    0.00
    12/18/2014 21:40      81    43.9      5.33        49.7      61.9      42.4       1       2     235     223    1022    0.00
    12/18/2014 21:50      83    44.2      5.33        49.4      61.9      42.4       1       2     220     337    1022    0.00
    12/18/2014 22:00      84    44.5      5.33        49.2      61.9      42.4       0       1     304     303    1022    0.00
    12/18/2014 22:10      84    44.2      5.33        48.7      61.9      42.4       0       1     278     279    1022    0.00
    12/18/2014 22:20      85    43.7      5.33        48.1      61.9      42.4       0       1     208     206    1022    0.00
    12/18/2014 22:30      86    43.9      5.33        47.9      61.9      42.4       0       0       0     212    1022    0.00
    12/18/2014 22:40      87    44.3      5.33        48.1      61.9      42.4       0       0       0     207    1022    0.00
    12/18/2014 22:50      86    44.4      5.33        48.2      61.9      42.4       0       1     320     322    1022    0.00
    12/18/2014 23:00      86    43.7      5.33        47.6      61.9      42.4       0       1      79      79    1022    0.00
    12/18/2014 23:10      87    43.8      5.33        47.5      61.9      42.4       1       2      54      34    1022    0.00
    12/18/2014 23:20      87    43.4      5.33        47.2      61.9      42.4       0       1      32     347    1022    0.00
    12/18/2014 23:30      88    43.7      5.33        47.2      61.9      42.4       1       2      30      32    1022    0.00
    12/18/2014 23:40      87    44.0      5.33        47.5      61.9      42.4       0       2       5       1    1022    0.00
    12/18/2014 23:50      87    44.0      5.33        47.6      61.9      42.4       1       2     347     346    1022    0.00
    12/19/2014 00:00      86    43.7      5.33        47.5      61.9      42.4       1       2     335     345    1022    0.00
    12/19/2014 00:10      86    43.3      5.33        47.0      47.3      46.5       1       2     341     345    1022    0.00
    12/19/2014 00:20      87    42.2      5.33        46.0      47.3      45.7       0       0       0     320    1022    0.00
    12/19/2014 00:30      87    42.2      5.33        45.8      47.3      45.6       0       0       0     301    1022    0.00
    12/19/2014 00:40      88    42.3      5.33        45.7      47.3      45.5       0       1     255     255    1022    0.00
    12/19/2014 00:50      89    42.7      5.33        46.0      47.3      45.5       0       0       0     284    1022    0.00
    12/19/2014 01:00      88    42.4      5.33        45.6      47.3      45.3       0       0       0     294    1022    0.00
    12/19/2014 01:10      89    42.3      5.33        45.5      47.3      45.2       0       1      53      50    1022    0.00
    12/19/2014 01:20      89    43.3      5.33        46.3      47.3      45.2       3       5      39      47    1021    0.00
    12/19/2014 01:30      87    43.4      5.33        46.8      47.3      45.2       1       5      29      32    1022    0.00
    12/19/2014 01:40      87    42.3      5.33        45.9      47.3      45.2       0       1      38      35    1021    0.00
    12/19/2014 01:50      88    41.7      5.33        45.3      47.3      44.9       0       0       0     311    1021    0.00
    12/19/2014 02:00      88    41.6      5.33        45.0      47.3      44.7       0       0       0     290    1021    0.00
    12/19/2014 02:10      88    41.9      5.33        45.2      47.3      44.7       0       0       0     290    1021    0.00
    12/19/2014 02:20      89    41.6      5.33        44.8      47.3      44.5       0       1     270     273    1021    0.00
    12/19/2014 02:30      89    41.6      5.33        44.7      47.3      44.4       0       1     267     263    1021    0.00
    12/19/2014 02:40      89    41.7      5.33        44.7      47.3      44.4       1       2     291     294    1021    0.00
    12/19/2014 02:50      89    41.7      5.33        44.7      47.3      44.4       0       1     330     338    1021    0.00
    12/19/2014 03:00      89    42.0      5.33        44.9      47.3      44.4       0       1     341     345    1021    0.00
    12/19/2014 03:10      89    41.9      5.33        44.8      47.3      44.4       0       1     343     338    1021    0.00
    12/19/2014 03:20      89    41.9      5.33        44.9      47.3      44.4       0       0       0     345    1021    0.00
    12/19/2014 03:30      89    41.6      5.33        44.6      47.3      44.3       0       0       0     345    1021    0.00
    12/19/2014 03:40      89    41.5      5.33        44.5      47.3      44.2       0       0       0     345    1021    0.00
    12/19/2014 03:50      89    41.6      5.33        44.6      47.3      44.2       1       3      45      40    1021    0.00
    12/19/2014 04:00      89    42.0      5.33        44.9      47.3      44.2       0       1      20      27    1021    0.00
    12/19/2014 04:10      89    41.5      5.33        44.5      47.3      44.1       0       2     256     257    1021    0.00
    12/19/2014 04:20      90    41.6      5.33        44.5      47.3      44.1       1       3     257     267    1021    0.00
    12/19/2014 04:30      89    41.9      5.33        44.8      47.3      44.1       1       3     262     260    1021    0.00
    12/19/2014 04:40      89    41.7      5.33        44.6      47.3      44.1       0       1     326     330    1021    0.00
    12/19/2014 04:50      89    41.4      5.33        44.4      47.3      44.0       0       0       0     302    1021    0.00
    12/19/2014 05:00      89    41.2      5.33        44.1      47.3      43.9       0       2     287     269    1022    0.00
    12/19/2014 05:10      90    41.1      5.33        44.0      47.3      43.7       0       1     340     343    1022    0.00
    12/19/2014 05:20      90    41.5      5.33        44.3      47.3      43.7       0       1     341     339    1022    0.00
    12/19/2014 05:30      90    41.2      5.33        44.1      47.3      43.7       0       1      45      55    1022    0.00
    12/19/2014 05:40      90    42.3      5.33        45.0      47.3      43.7       2       4      29      29    1022    0.00
    12/19/2014 05:50      89    42.4      5.33        45.3      47.3      43.7       1       3     358      35    1022    0.00
    12/19/2014 06:00      89    41.7      5.33        44.7      47.3      43.7       1       2       3      39    1022    0.00
    12/19/2014 06:10      89    41.5      5.33        44.5      47.3      43.7       0       2      43      50    1022    0.00
    12/19/2014 06:20      89    41.3      5.33        44.3      47.3      43.7       0       2      43      40    1022    0.00
    12/19/2014 06:30      89    41.5      5.33        44.5      47.3      43.7       0       1      14       0    1022    0.00
    12/19/2014 06:40      88    41.6      5.33        44.8      47.3      43.7       1       3      15      23    1022    0.00
    12/19/2014 06:50      87    40.8      5.33        44.4      47.3      43.7       0       1     359       1    1022    0.00
    12/19/2014 07:00      87    40.0      5.33        43.5      47.3      43.2       0       1     278     286    1022    0.00
    12/19/2014 07:10      88    39.9      5.33        43.3      47.3      43.1       0       0       0     261    1022    0.00
    12/19/2014 07:20      88    40.0      5.33        43.3      47.3      43.0       0       2     131     136    1022    0.00
    12/19/2014 07:30      89    40.4      5.33        43.5      47.3      43.0       0       1     114      95    1022    0.00
    12/19/2014 07:40      89    40.6      5.33        43.8      47.3      43.0       0       1     153     146    1022    0.00
    12/19/2014 07:50      89    41.0      5.33        44.1      47.3      43.0       0       2     168     166    1022    0.00